Time;durP1;ratioP1;P1;durP2;ratioP2;P2;SDS_P1;SDS_P2;PMS_P1;PMS_P2;Temp;Humidity;BMP_temperature;BMP_pressure;BME280_temperature;BME280_humidity;BME280_pressure;Samples;Min_cycle;Max_cycle;Signal;HPM_P1;HPM_P2
2023/03/03 00:02:07;;;;;;;55.23;30.50;;;5.50;99.90;;;;;;4933542;28;20040;-70
2023/03/03 00:04:33;;;;;;;58.70;29.97;;;5.50;99.90;;;;;;4931381;29;20071;-70
2023/03/03 00:06:59;;;;;;;58.07;31.07;;;5.30;99.90;;;;;;4933620;29;20035;-70
2023/03/03 00:09:25;;;;;;;59.37;32.10;;;5.30;99.90;;;;;;4935507;29;20051;-70
2023/03/03 00:11:54;;;;;;;58.93;31.70;;;5.30;99.90;;;;;;4940478;29;20027;-70
2023/03/03 00:14:28;;;;;;;56.33;32.13;;;5.40;99.90;;;;;;4926821;29;20019;-70
2023/03/03 00:16:54;;;;;;;53.87;32.57;;;5.40;99.90;;;;;;4922812;28;20039;-70
2023/03/03 00:19:22;;;;;;;57.33;32.90;;;5.40;99.90;;;;;;4932734;29;20082;-70
2023/03/03 00:21:48;;;;;;;51.40;30.30;;;5.40;99.90;;;;;;4933705;29;20048;-70
2023/03/03 00:24:24;;;;;;;55.77;31.97;;;5.30;99.90;;;;;;4931884;29;20032;-70
2023/03/03 00:26:51;;;;;;;54.17;32.43;;;5.40;99.90;;;;;;4934411;29;20040;-70
2023/03/03 00:29:26;;;;;;;50.57;29.73;;;5.50;99.90;;;;;;4934291;29;20054;-70
2023/03/03 00:31:52;;;;;;;59.63;32.47;;;5.40;99.90;;;;;;4928592;28;20038;-70
2023/03/03 00:34:26;;;;;;;56.10;31.67;;;5.50;99.90;;;;;;4934870;29;20384;-70
2023/03/03 00:36:54;;;;;;;54.43;31.83;;;5.50;99.90;;;;;;4917841;29;20060;-70
2023/03/03 00:39:30;;;;;;;53.97;31.27;;;5.40;99.90;;;;;;4917528;29;20031;-70
2023/03/03 00:41:57;;;;;;;56.00;31.50;;;5.50;99.90;;;;;;4932927;29;20050;-70
2023/03/03 00:44:26;;;;;;;58.53;31.93;;;5.50;99.90;;;;;;4933650;29;20036;-70
2023/03/03 00:46:53;;;;;;;54.17;30.93;;;5.40;99.90;;;;;;4931950;28;20040;-70
2023/03/03 00:49:23;;;;;;;63.40;31.60;;;5.40;99.90;;;;;;4933722;29;20036;-70
2023/03/03 00:51:49;;;;;;;57.03;33.10;;;5.20;99.90;;;;;;4934102;29;20116;-70
2023/03/03 00:54:16;;;;;;;57.13;32.00;;;5.10;99.90;;;;;;4933265;29;20046;-70
2023/03/03 00:56:42;;;;;;;57.67;32.23;;;5.10;99.90;;;;;;4934798;29;20044;-70
2023/03/03 00:59:08;;;;;;;54.57;30.73;;;5.20;99.90;;;;;;4933320;29;20028;-70
2023/03/03 01:01:34;;;;;;;50.43;29.30;;;5.20;99.90;;;;;;4933353;29;20036;-70
2023/03/03 01:04:00;;;;;;;62.67;32.83;;;5.30;99.90;;;;;;4933060;29;20035;-70
2023/03/03 01:06:27;;;;;;;56.57;30.37;;;5.20;99.90;;;;;;4932401;29;20039;-70
2023/03/03 01:08:56;;;;;;;54.23;30.33;;;5.20;99.90;;;;;;4933955;29;20051;-70
2023/03/03 01:11:23;;;;;;;53.03;31.03;;;5.30;99.90;;;;;;4936185;29;20028;-70
2023/03/03 01:13:49;;;;;;;54.30;30.63;;;5.00;99.90;;;;;;4934406;29;20054;-70
2023/03/03 01:16:16;;;;;;;53.90;31.87;;;5.00;99.90;;;;;;4933089;28;20043;-70
2023/03/03 01:18:42;;;;;;;57.90;31.80;;;5.00;99.90;;;;;;4918918;29;20028;-70
2023/03/03 01:21:08;;;;;;;58.27;30.60;;;5.10;99.90;;;;;;4933614;29;20519;-70
2023/03/03 01:23:34;;;;;;;57.27;32.20;;;5.10;99.90;;;;;;4916555;29;20051;-70
2023/03/03 01:26:00;;;;;;;60.23;33.03;;;5.10;99.90;;;;;;4933259;29;20039;-70
2023/03/03 01:28:27;;;;;;;54.80;31.13;;;5.20;99.90;;;;;;4931464;29;20081;-70
2023/03/03 01:30:53;;;;;;;57.90;32.10;;;5.10;99.90;;;;;;4932130;28;20385;-70
2023/03/03 01:33:19;;;;;;;62.47;32.50;;;5.20;99.90;;;;;;4933206;29;20039;-70
2023/03/03 01:35:46;;;;;;;62.53;33.37;;;5.20;99.90;;;;;;4930508;29;20039;-70
2023/03/03 01:38:13;;;;;;;57.77;30.67;;;5.20;99.90;;;;;;4925926;29;20051;-70
2023/03/03 01:40:39;;;;;;;56.93;31.07;;;5.10;99.90;;;;;;4932555;29;20032;-69
2023/03/03 01:43:05;;;;;;;60.10;32.10;;;5.20;99.90;;;;;;4934616;29;20042;-70
2023/03/03 01:45:46;;;;;;;56.30;31.07;;;5.20;99.90;;;;;;4933150;28;20507;-70
2023/03/03 01:48:13;;;;;;;;;;;5.10;99.90;;;;;;4925578;29;20050;-70
2023/03/03 01:50:48;;;;;;;60.23;31.90;;;5.00;99.90;;;;;;4931511;29;19910;-69
2023/03/03 01:53:37;;;;;;;59.43;33.30;;;5.00;99.90;;;;;;4917446;29;20031;-70
2023/03/03 01:56:04;;;;;;;62.23;31.73;;;5.00;99.90;;;;;;4929892;29;20047;-70
2023/03/03 01:58:34;;;;;;;62.80;33.67;;;5.00;99.90;;;;;;4932818;29;20047;-69
2023/03/03 02:01:06;;;;;;;52.27;29.73;;;5.00;99.90;;;;;;4915677;28;20063;-70
2023/03/03 02:03:32;;;;;;;54.30;30.63;;;5.00;99.90;;;;;;4915215;29;20032;-70
2023/03/03 02:06:01;;;;;;;55.50;31.43;;;5.00;99.90;;;;;;4916967;29;20397;-70
2023/03/03 02:08:40;;;;;;;57.63;31.90;;;5.00;99.90;;;;;;4917315;29;20028;-70
2023/03/03 02:11:06;;;;;;;52.77;30.33;;;5.00;99.90;;;;;;4915314;29;20047;-70
2023/03/03 02:13:33;;;;;;;62.23;31.60;;;4.90;99.90;;;;;;4923481;29;20046;-70
2023/03/03 02:15:59;;;;;;;55.17;31.23;;;4.90;99.90;;;;;;4922638;29;20040;-69
2023/03/03 02:18:25;;;;;;;53.93;31.47;;;4.80;99.90;;;;;;4948340;29;20495;-70
2023/03/03 02:20:54;;;;;;;62.30;32.77;;;4.90;99.90;;;;;;4931891;29;20031;-69
2023/03/03 02:23:44;;;;;;;56.43;31.30;;;4.80;99.90;;;;;;4933146;29;20035;-70
2023/03/03 02:26:21;;;;;;;54.43;29.47;;;4.80;99.90;;;;;;4924280;29;20035;-70
2023/03/03 02:28:48;;;;;;;57.77;31.70;;;4.90;99.90;;;;;;4936455;29;20062;-70
2023/03/03 02:31:16;;;;;;;54.90;30.13;;;4.90;99.90;;;;;;4935543;28;20035;-70
2023/03/03 02:33:43;;;;;;;57.37;32.03;;;4.80;99.90;;;;;;4920584;29;20031;-70
2023/03/03 02:36:17;;;;;;;61.20;31.23;;;4.90;99.90;;;;;;4920674;29;20024;-69
2023/03/03 02:39:10;;;;;;;60.53;31.40;;;4.80;99.90;;;;;;4919738;29;20503;-70
2023/03/03 02:41:56;;;;;;;59.47;31.23;;;4.70;99.90;;;;;;4936542;29;20044;-70
2023/03/03 02:44:26;;;;;;;57.53;31.57;;;4.70;99.90;;;;;;4934599;29;20028;-70
2023/03/03 02:46:53;;;;;;;59.07;32.23;;;4.50;99.90;;;;;;4935053;28;20043;-70
2023/03/03 02:49:24;;;;;;;60.27;30.87;;;4.60;99.90;;;;;;4920548;29;20306;-69
2023/03/03 02:51:50;;;;;;;58.65;30.02;;;4.60;99.90;;;;;;4935937;29;20043;-70
2023/03/03 02:54:18;;;;;;;63.87;32.87;;;4.50;99.90;;;;;;4918533;29;20036;-69
2023/03/03 02:56:44;;;;;;;59.43;31.23;;;4.50;99.90;;;;;;4920614;29;20032;-70
2023/03/03 02:59:10;;;;;;;58.13;32.20;;;4.50;99.90;;;;;;4935593;29;20042;-70
2023/03/03 03:01:36;;;;;;;62.50;32.13;;;4.50;99.90;;;;;;4935817;28;20042;-70
2023/03/03 03:04:05;;;;;;;65.33;33.53;;;4.50;99.90;;;;;;4935278;29;20048;-70
2023/03/03 03:06:31;;;;;;;62.97;33.07;;;4.50;99.90;;;;;;4920264;29;20039;-70
2023/03/03 03:08:58;;;;;;;57.20;32.60;;;4.50;99.90;;;;;;4934558;29;20039;-70
2023/03/03 03:11:25;;;;;;;56.03;32.30;;;4.50;99.90;;;;;;4938269;29;20043;-70
2023/03/03 03:13:51;;;;;;;55.23;31.67;;;4.50;99.90;;;;;;4942534;29;20084;-69
2023/03/03 03:16:18;;;;;;;57.13;30.67;;;4.50;99.90;;;;;;4935266;28;20035;-69
2023/03/03 03:18:44;;;;;;;56.90;32.60;;;4.50;99.90;;;;;;4951914;29;20039;-70
2023/03/03 03:21:11;;;;;;;59.03;33.30;;;4.50;99.90;;;;;;4934147;29;20042;-70
2023/03/03 03:23:38;;;;;;;69.50;33.47;;;4.30;99.90;;;;;;4916271;29;20024;-70
2023/03/03 03:26:04;;;;;;;61.87;34.63;;;4.20;99.90;;;;;;4934065;29;20050;-70
2023/03/03 03:28:30;;;;;;;72.23;34.90;;;4.10;99.90;;;;;;4934367;29;20582;-70
2023/03/03 03:30:57;;;;;;;64.20;34.50;;;4.00;99.90;;;;;;4935336;28;20040;-70
2023/03/03 03:33:23;;;;;;;63.57;34.07;;;3.90;99.90;;;;;;4933266;29;20028;-70
2023/03/03 03:35:49;;;;;;;60.77;33.80;;;3.80;99.90;;;;;;4934081;29;20032;-70
2023/03/03 03:38:15;;;;;;;65.07;34.80;;;3.60;99.90;;;;;;4933238;29;20036;-70
2023/03/03 03:40:41;;;;;;;66.60;32.17;;;3.70;99.90;;;;;;4934705;29;20036;-70
2023/03/03 03:43:07;;;;;;;66.70;33.97;;;3.60;99.90;;;;;;4919416;29;20044;-69
2023/03/03 03:45:33;;;;;;;62.43;33.07;;;3.60;99.90;;;;;;4932789;28;20408;-70
2023/03/03 03:48:00;;;;;;;62.13;32.63;;;3.50;99.90;;;;;;4934851;29;20042;-69
2023/03/03 03:50:26;;;;;;;60.53;32.33;;;3.40;99.90;;;;;;4936325;29;20047;-70
2023/03/03 03:52:52;;;;;;;66.37;34.37;;;3.50;99.90;;;;;;4934906;29;20042;-70
2023/03/03 03:55:18;;;;;;;65.37;33.63;;;3.50;99.90;;;;;;4936089;29;20366;-69
2023/03/03 03:57:44;;;;;;;64.37;33.50;;;3.60;99.90;;;;;;4935244;29;20051;-69
2023/03/03 04:00:11;;;;;;;60.73;32.10;;;3.60;99.90;;;;;;4935743;28;20035;-69
2023/03/03 04:02:37;;;;;;;65.73;34.60;;;3.60;99.90;;;;;;4932550;29;20047;-70
2023/03/03 04:05:03;;;;;;;64.57;36.00;;;3.60;99.90;;;;;;4931183;29;20401;-70
2023/03/03 04:07:29;;;;;;;70.40;35.20;;;3.70;99.90;;;;;;4916723;29;20044;-70
2023/03/03 04:09:55;;;;;;;67.83;35.37;;;3.80;99.90;;;;;;4937125;29;20044;-70
2023/03/03 04:12:21;;;;;;;69.37;34.67;;;3.80;99.90;;;;;;4941804;29;20392;-70
2023/03/03 04:14:48;;;;;;;65.07;32.67;;;3.90;99.90;;;;;;4935624;29;20118;-69
2023/03/03 04:17:21;;;;;;;67.03;35.57;;;3.90;99.90;;;;;;4935962;28;20431;-70
2023/03/03 04:19:47;;;;;;;70.30;35.00;;;3.80;99.90;;;;;;4935518;29;20027;-69
2023/03/03 04:22:14;;;;;;;62.13;33.87;;;3.80;99.90;;;;;;4940247;29;20032;-70
2023/03/03 04:24:40;;;;;;;66.17;35.83;;;3.70;99.90;;;;;;4936425;29;20486;-69
2023/03/03 04:27:08;;;;;;;60.10;33.33;;;3.50;99.90;;;;;;4925461;29;20357;-69
2023/03/03 04:29:34;;;;;;;64.17;34.67;;;3.60;99.90;;;;;;4954373;29;20027;-70
2023/03/03 04:32:00;;;;;;;60.07;33.93;;;3.50;99.90;;;;;;4953851;28;20086;-70
2023/03/03 04:34:26;;;;;;;64.60;34.07;;;3.50;99.90;;;;;;4936087;29;20032;-70
2023/03/03 04:36:53;;;;;;;66.07;36.00;;;3.50;99.90;;;;;;4933643;29;20051;-70
2023/03/03 04:39:19;;;;;;;61.97;34.70;;;3.40;99.90;;;;;;4942413;29;20480;-70
2023/03/03 04:41:45;;;;;;;64.83;34.70;;;3.50;99.90;;;;;;4949781;28;20046;-69
2023/03/03 04:44:11;;;;;;;59.50;32.87;;;3.50;99.90;;;;;;4947530;29;20400;-70
2023/03/03 04:46:37;;;;;;;66.00;36.13;;;3.60;99.90;;;;;;4943535;28;20036;-70
2023/03/03 04:49:06;;;;;;;65.77;34.03;;;3.70;99.90;;;;;;4934241;29;20511;-70
2023/03/03 04:51:33;;;;;;;65.47;36.33;;;3.80;99.90;;;;;;4934880;29;20035;-69
2023/03/03 04:53:59;;;;;;;65.13;34.27;;;3.70;99.90;;;;;;4935106;29;20036;-69
2023/03/03 04:56:25;;;;;;;66.13;35.23;;;3.80;99.90;;;;;;4933608;29;20039;-73
2023/03/03 04:58:51;;;;;;;64.73;33.43;;;3.70;99.90;;;;;;4934311;29;20070;-68
2023/03/03 05:01:18;;;;;;;65.53;34.93;;;3.70;99.90;;;;;;4935370;28;20032;-68
2023/03/03 05:03:44;;;;;;;64.70;36.27;;;3.70;99.90;;;;;;4933204;29;20031;-68
2023/03/03 05:06:10;;;;;;;65.80;36.23;;;3.80;99.90;;;;;;4934587;29;20111;-68
2023/03/03 05:08:36;;;;;;;68.90;36.23;;;3.70;99.90;;;;;;4934573;29;20046;-68
2023/03/03 05:11:03;;;;;;;67.13;36.43;;;3.70;99.90;;;;;;4933940;29;20052;-69
2023/03/03 05:13:29;;;;;;;71.63;38.10;;;3.70;99.90;;;;;;4935555;29;20032;-69
2023/03/03 05:15:55;;;;;;;67.17;37.10;;;3.70;99.90;;;;;;4934057;28;20044;-68
2023/03/03 05:18:22;;;;;;;72.77;37.80;;;3.70;99.90;;;;;;4935156;29;20043;-68
2023/03/03 05:20:48;;;;;;;65.53;34.87;;;3.70;99.90;;;;;;4934437;29;20032;-68
2023/03/03 05:23:15;;;;;;;65.53;35.27;;;3.80;99.90;;;;;;4934256;29;20043;-68
2023/03/03 05:25:41;;;;;;;74.07;37.87;;;3.70;99.90;;;;;;4933928;29;20031;-68
2023/03/03 05:28:08;;;;;;;73.17;37.00;;;3.70;99.90;;;;;;4918413;29;20051;-69
2023/03/03 05:30:34;;;;;;;69.93;36.80;;;3.60;99.90;;;;;;4934921;28;20036;-68
2023/03/03 05:33:01;;;;;;;75.93;38.17;;;3.50;99.90;;;;;;4934074;29;20051;-69
2023/03/03 05:35:27;;;;;;;72.20;36.17;;;3.50;99.90;;;;;;4935013;29;20047;-69
2023/03/03 05:37:53;;;;;;;70.27;36.57;;;3.50;99.90;;;;;;4933994;29;20043;-68
2023/03/03 05:40:19;;;;;;;76.17;37.47;;;3.40;99.90;;;;;;4933627;29;20400;-68
2023/03/03 05:42:45;;;;;;;68.90;35.17;;;3.50;99.90;;;;;;4935324;29;20469;-69
2023/03/03 05:45:12;;;;;;;66.63;35.03;;;3.40;99.90;;;;;;4917717;28;20028;-68
2023/03/03 05:47:38;;;;;;;63.43;35.43;;;3.40;99.90;;;;;;4933300;29;20031;-68
2023/03/03 05:50:04;;;;;;;85.20;36.13;;;3.50;99.90;;;;;;4934328;29;20066;-68
2023/03/03 05:52:30;;;;;;;73.00;36.70;;;3.60;99.90;;;;;;4933912;29;20040;-68
2023/03/03 05:54:56;;;;;;;71.33;35.97;;;3.60;99.90;;;;;;4934280;29;20040;-68
2023/03/03 05:57:23;;;;;;;75.10;35.97;;;3.60;99.90;;;;;;4934954;29;20055;-68
2023/03/03 05:59:49;;;;;;;70.67;35.63;;;3.60;99.90;;;;;;4933455;29;20036;-68
2023/03/03 06:02:15;;;;;;;73.43;37.80;;;3.60;99.90;;;;;;4915983;28;20047;-69
2023/03/03 06:04:41;;;;;;;69.43;35.87;;;3.60;99.90;;;;;;4933976;29;20032;-68
2023/03/03 06:07:08;;;;;;;72.70;36.93;;;3.60;99.90;;;;;;4934902;29;20032;-68
2023/03/03 06:09:34;;;;;;;75.70;38.17;;;3.60;99.90;;;;;;4933278;29;20070;-68
2023/03/03 06:12:00;;;;;;;74.33;36.53;;;3.50;99.90;;;;;;4940384;29;20043;-68
2023/03/03 06:14:26;;;;;;;66.67;32.77;;;3.60;99.90;;;;;;4942797;29;20043;-68
2023/03/03 06:16:52;;;;;;;74.23;36.47;;;3.50;99.90;;;;;;4932213;28;20032;-69
2023/03/03 06:19:18;;;;;;;71.03;34.67;;;3.40;99.90;;;;;;4949260;29;20035;-68
2023/03/03 06:21:44;;;;;;;73.43;36.70;;;3.40;99.90;;;;;;4953953;29;20058;-68
2023/03/03 06:24:10;;;;;;;69.57;34.47;;;3.40;99.90;;;;;;4952588;29;20032;-69
2023/03/03 06:26:37;;;;;;;77.80;36.53;;;3.40;99.90;;;;;;4952869;29;20054;-69
2023/03/03 06:29:03;;;;;;;73.73;37.33;;;3.20;99.90;;;;;;4942670;28;20044;-69
2023/03/03 06:31:29;;;;;;;74.50;38.80;;;3.20;99.90;;;;;;4932282;28;20036;-69
2023/03/03 06:33:55;;;;;;;930.70;111.50;;;3.30;99.90;;;;;;4933942;29;20035;-68
2023/03/03 06:36:22;;;;;;;73.73;36.63;;;3.40;99.90;;;;;;4933758;29;20044;-69
2023/03/03 06:38:48;;;;;;;77.43;37.90;;;3.50;99.90;;;;;;4932691;29;20043;-69
2023/03/03 06:41:14;;;;;;;81.93;38.17;;;3.50;99.90;;;;;;4932683;29;20094;-69
2023/03/03 06:43:40;;;;;;;78.60;38.73;;;3.40;99.90;;;;;;4932180;29;20039;-68
2023/03/03 06:46:06;;;;;;;70.73;37.50;;;3.50;99.90;;;;;;4933105;28;20393;-69
2023/03/03 06:48:32;;;;;;;71.37;36.13;;;3.50;99.90;;;;;;4940080;29;20032;-68
2023/03/03 06:50:59;;;;;;;75.67;36.67;;;3.30;99.90;;;;;;4941690;29;20551;-69
2023/03/03 06:53:26;;;;;;;78.17;37.27;;;3.30;99.90;;;;;;4952259;29;20042;-68
2023/03/03 06:55:53;;;;;;;76.93;37.70;;;3.10;99.90;;;;;;4947261;29;20050;-69
2023/03/03 06:58:20;;;;;;;75.20;39.50;;;3.00;99.90;;;;;;4934223;29;20046;-68
2023/03/03 07:00:55;;;;;;;74.20;35.97;;;2.90;99.90;;;;;;4932875;28;20035;-68
2023/03/03 07:03:23;;;;;;;77.33;39.60;;;3.00;99.90;;;;;;4932616;29;20035;-69
2023/03/03 07:05:50;;;;;;;75.33;38.67;;;3.00;99.90;;;;;;4928229;29;20035;-69
2023/03/03 07:08:18;;;;;;;81.60;37.97;;;3.10;99.90;;;;;;4928229;29;20047;-68
2023/03/03 07:10:44;;;;;;;79.87;37.17;;;3.20;99.90;;;;;;4921461;29;20044;-69
2023/03/03 07:13:21;;;;;;;84.67;38.90;;;3.30;99.90;;;;;;4951200;28;20426;-69
2023/03/03 07:15:48;;;;;;;75.03;37.97;;;3.30;99.90;;;;;;4930066;29;20385;-69
2023/03/03 07:18:25;;;;;;;77.67;37.50;;;3.40;99.90;;;;;;4923322;29;20043;-69
2023/03/03 07:20:51;;;;;;;80.53;37.87;;;3.40;99.90;;;;;;4938804;29;20043;-69
2023/03/03 07:23:23;;;;;;;73.17;38.17;;;3.40;99.90;;;;;;4900642;29;20040;-68
2023/03/03 07:25:49;;;;;;;72.67;37.97;;;3.40;99.90;;;;;;4898472;29;20037;-69
2023/03/03 07:28:28;;;;;;;79.27;39.50;;;3.40;99.90;;;;;;4909424;29;20048;-69
2023/03/03 07:30:55;;;;;;;80.83;38.80;;;3.50;99.90;;;;;;4920164;28;20058;-69
2023/03/03 07:33:34;;;;;;;86.17;39.37;;;3.60;99.90;;;;;;4945273;28;20138;-70
2023/03/03 07:36:01;;;;;;;82.17;40.57;;;3.70;99.90;;;;;;4933066;29;20023;-69
2023/03/03 07:38:33;;;;;;;81.73;38.63;;;3.50;99.90;;;;;;4935454;29;20046;-69
2023/03/03 07:41:00;;;;;;;79.73;38.93;;;3.60;99.90;;;;;;4936947;29;20381;-69
2023/03/03 07:43:37;;;;;;;78.33;41.33;;;3.60;99.90;;;;;;4908274;29;20039;-70
2023/03/03 07:46:17;;;;;;;86.47;45.43;;;3.50;99.90;;;;;;4922702;29;20036;-69
2023/03/03 07:48:43;;;;;;;78.10;38.57;;;3.60;99.90;;;;;;4934682;29;20126;-69
2023/03/03 07:51:13;;;;;;;81.73;41.07;;;3.70;99.90;;;;;;4913072;29;20562;-70
2023/03/03 07:53:40;;;;;;;88.70;47.05;;;3.70;99.90;;;;;;4931363;29;20038;-69
2023/03/03 07:56:35;;;;;;;97.07;48.70;;;3.70;99.90;;;;;;4946600;29;20043;-69
2023/03/03 07:59:21;;;;;;;107.67;52.40;;;3.70;99.90;;;;;;4921367;29;20526;-69
2023/03/03 08:01:49;;;;;;;83.03;41.77;;;3.60;99.90;;;;;;4916574;29;20040;-70
2023/03/03 08:04:49;;;;;;;82.87;42.63;;;3.50;99.90;;;;;;4934014;29;20035;-69
2023/03/03 08:07:24;;;;;;;87.33;43.00;;;3.50;99.90;;;;;;4934136;29;20439;-69
2023/03/03 08:09:59;;;;;;;75.00;38.80;;;3.40;99.90;;;;;;4934934;29;20504;-71
2023/03/03 08:12:40;;;;;;;77.97;40.20;;;3.50;99.90;;;;;;4945750;29;20485;-71
2023/03/03 08:15:15;;;;;;;;;;;3.60;99.90;;;;;;4940766;28;20050;-71
2023/03/03 08:17:42;;;;;;;70.80;35.20;;;3.60;99.90;;;;;;4936956;29;19922;-72
2023/03/03 08:20:27;;;;;;;74.67;38.47;;;3.80;99.90;;;;;;4934152;29;20131;-71
2023/03/03 08:22:54;;;;;;;76.93;38.53;;;4.00;99.90;;;;;;4913503;29;20047;-70
2023/03/03 08:25:20;;;;;;;65.33;33.53;;;4.20;99.90;;;;;;4918076;29;20389;-72
2023/03/03 08:27:46;;;;;;;45.30;25.87;;;4.30;99.90;;;;;;4936287;29;20046;-74
2023/03/03 08:30:12;;;;;;;73.80;36.93;;;4.40;99.90;;;;;;4932505;28;20469;-72
2023/03/03 08:32:38;;;;;;;77.97;39.93;;;4.50;99.90;;;;;;4935199;29;20481;-73
2023/03/03 08:35:05;;;;;;;70.73;36.07;;;4.30;99.90;;;;;;4918636;29;20043;-73
2023/03/03 08:37:31;;;;;;;77.77;38.53;;;4.20;99.90;;;;;;4934016;29;20039;-72
2023/03/03 08:39:57;;;;;;;77.57;38.77;;;4.40;99.90;;;;;;4934229;29;20051;-73
2023/03/03 08:42:23;;;;;;;74.80;34.87;;;4.60;99.90;;;;;;4935990;29;20035;-73
2023/03/03 08:44:49;;;;;;;71.23;34.57;;;4.60;99.90;;;;;;4934517;29;20059;-73
2023/03/03 08:47:15;;;;;;;67.30;34.40;;;4.60;99.90;;;;;;4934747;28;20042;-72
2023/03/03 08:49:41;;;;;;;69.10;34.37;;;4.50;99.90;;;;;;4932914;29;20044;-69
2023/03/03 08:52:07;;;;;;;68.97;36.13;;;4.50;99.90;;;;;;4914400;29;20113;-69
2023/03/03 08:54:33;;;;;;;67.27;34.67;;;4.40;99.90;;;;;;4935081;28;20043;-69
2023/03/03 08:57:00;;;;;;;67.20;36.60;;;4.30;99.90;;;;;;4935909;29;20376;-69
2023/03/03 08:59:26;;;;;;;64.40;34.50;;;4.30;99.90;;;;;;4935848;29;20052;-69
2023/03/03 09:01:52;;;;;;;73.83;36.87;;;4.20;99.90;;;;;;4932552;28;20370;-69
2023/03/03 09:04:18;;;;;;;52.93;26.70;;;4.30;99.90;;;;;;4934618;29;20039;-69
2023/03/03 09:06:44;;;;;;;75.20;37.57;;;4.40;99.90;;;;;;4935828;29;20465;-69
2023/03/03 09:09:10;;;;;;;72.97;35.30;;;4.30;99.90;;;;;;4935492;29;20063;-69
2023/03/03 09:11:36;;;;;;;75.93;39.37;;;4.30;99.90;;;;;;4933741;29;20032;-69
2023/03/03 09:14:10;;;;;;;59.20;28.93;;;4.40;99.90;;;;;;4935817;29;20496;-69
2023/03/03 09:16:38;;;;;;;67.70;35.13;;;4.50;99.90;;;;;;4931434;28;20044;-69
2023/03/03 09:19:25;;;;;;;70.20;38.00;;;4.50;99.90;;;;;;4930143;28;20052;-69
2023/03/03 09:21:53;;;;;;;70.17;35.07;;;4.50;99.90;;;;;;4934368;29;20392;-69
2023/03/03 09:24:25;;;;;;;66.47;36.53;;;4.60;99.90;;;;;;4918697;29;20054;-69
2023/03/03 09:26:52;;;;;;;65.07;33.83;;;4.80;99.90;;;;;;4934654;29;20027;-69
2023/03/03 09:29:24;;;;;;;64.27;34.40;;;4.90;99.90;;;;;;4932588;29;20040;-69
2023/03/03 09:31:54;;;;;;;66.80;33.60;;;5.00;99.90;;;;;;4924840;28;20048;-69
2023/03/03 09:34:24;;;;;;;61.03;32.92;;;5.20;99.90;;;;;;4931768;29;20109;-69
2023/03/03 09:36:54;;;;;;;69.03;36.37;;;5.10;99.90;;;;;;4934024;29;20036;-69
2023/03/03 09:39:24;;;;;;;56.83;31.10;;;5.10;99.90;;;;;;4918044;29;20429;-69
2023/03/03 09:42:20;;;;;;;59.23;32.83;;;5.20;99.90;;;;;;4934047;29;20027;-69
2023/03/03 09:45:05;;;;;;;70.20;34.87;;;5.20;99.90;;;;;;4932238;29;20370;-69
2023/03/03 09:47:56;;;;;;;68.33;36.37;;;5.20;99.90;;;;;;4916429;29;20036;-69
2023/03/03 09:50:48;;;;;;;61.25;36.22;;;5.30;99.90;;;;;;4934216;29;20039;-69
2023/03/03 09:53:49;;;;;;;74.27;38.10;;;5.40;99.90;;;;;;4934563;29;20043;-74
2023/03/03 09:56:19;;;;;;;59.10;31.97;;;5.60;99.90;;;;;;4932596;29;20035;-69
2023/03/03 09:58:56;;;;;;;62.55;31.27;;;5.90;99.90;;;;;;4928708;29;20044;-68
2023/03/03 10:01:52;;;;;;;58.33;31.03;;;6.10;99.90;;;;;;4913978;29;20039;-69
2023/03/03 10:04:34;;;;;;;52.93;26.73;;;6.00;99.90;;;;;;4932952;29;20470;-68
2023/03/03 10:07:00;;;;;;;61.83;33.85;;;5.90;99.90;;;;;;4934707;29;20432;-68
2023/03/03 10:09:47;;;;;;;62.85;32.25;;;5.90;99.90;;;;;;4934773;29;20414;-68
2023/03/03 10:12:28;;;;;;;61.20;34.37;;;6.10;99.90;;;;;;4943400;29;20023;-68
2023/03/03 10:15:12;;;;;;;53.33;28.67;;;6.30;99.90;;;;;;4939502;29;20031;-68
2023/03/03 10:18:32;;;;;;;57.88;31.92;;;6.40;99.90;;;;;;4925425;29;20040;-68
2023/03/03 10:21:15;;;;;;;54.92;30.20;;;6.70;99.90;;;;;;4913740;29;20051;-68
2023/03/03 10:24:12;;;;;;;51.05;31.25;;;6.90;99.90;;;;;;4928317;29;20038;-68
2023/03/03 10:26:49;;;;;;;63.15;34.75;;;6.80;99.90;;;;;;4931318;29;20040;-68
2023/03/03 10:29:21;;;;;;;50.80;28.33;;;6.80;99.90;;;;;;4917267;29;20031;-68
2023/03/03 10:31:54;;;;;;;57.72;30.20;;;6.90;99.90;;;;;;4930042;29;20036;-68
2023/03/03 10:34:48;;;;;;;33.10;19.02;;;7.10;99.90;;;;;;4915440;29;20043;-68
2023/03/03 10:37:31;;;;;;;54.78;29.38;;;7.00;99.90;;;;;;4935501;29;20042;-69
2023/03/03 10:40:21;;;;;;;56.97;32.38;;;7.10;99.90;;;;;;4913850;29;20043;-68
2023/03/03 10:42:56;;;;;;;44.90;22.63;;;7.10;99.90;;;;;;4932377;29;20031;-68
2023/03/03 10:45:29;;;;;;;49.35;30.38;;;7.20;99.90;;;;;;4933343;29;20187;-68
2023/03/03 10:48:25;;;;;;;49.90;28.65;;;7.30;99.90;;;;;;4917907;29;20042;-68
2023/03/03 10:50:57;;;;;;;54.92;29.25;;;7.40;99.90;;;;;;4933859;29;20054;-68
2023/03/03 10:53:33;;;;;;;53.58;31.83;;;7.60;99.90;;;;;;4936895;29;20028;-68
2023/03/03 10:56:21;;;;;;;51.78;31.83;;;7.70;99.90;;;;;;4921422;29;20049;-68
2023/03/03 10:58:56;;;;;;;49.15;27.55;;;7.80;99.90;;;;;;4934652;29;20047;-68
2023/03/03 11:01:37;;;;;;;38.45;19.88;;;7.70;99.90;;;;;;4936452;28;20031;-68
2023/03/03 11:04:29;;;;;;;53.35;28.80;;;7.70;99.90;;;;;;4921184;29;20032;-68
2023/03/03 11:07:17;;;;;;;57.10;33.60;;;7.70;99.90;;;;;;4930048;29;20148;-68
2023/03/03 11:10:07;;;;;;;56.25;30.23;;;7.90;99.90;;;;;;4936676;29;20397;-68
2023/03/03 11:12:46;;;;;;;53.72;29.20;;;8.20;99.90;;;;;;4937508;29;20035;-68
2023/03/03 11:15:20;;;;;;;55.10;32.00;;;8.50;99.90;;;;;;4931348;28;20056;-69
2023/03/03 11:18:07;;;;;;;54.67;29.92;;;8.40;99.90;;;;;;4937374;29;20038;-68
2023/03/03 11:21:04;;;;;;;52.20;30.95;;;8.40;99.90;;;;;;4956822;29;20039;-68
2023/03/03 11:24:00;;;;;;;54.20;31.10;;;8.50;99.90;;;;;;4954605;29;20031;-68
2023/03/03 11:26:41;;;;;;;51.85;28.00;;;8.50;99.90;;;;;;4934092;29;20070;-68
2023/03/03 11:29:28;;;;;;;52.83;33.53;;;8.60;99.90;;;;;;4932604;29;20036;-68
2023/03/03 11:32:21;;;;;;;38.63;23.02;;;8.70;99.90;;;;;;4936586;28;20036;-68
2023/03/03 11:34:59;;;;;;;59.85;34.95;;;8.70;99.90;;;;;;4936390;29;20508;-68
2023/03/03 11:37:44;;;;;;;54.83;33.17;;;8.80;99.90;;;;;;4935239;29;20031;-68
2023/03/03 11:40:18;;;;;;;54.97;33.47;;;8.80;99.90;;;;;;4904155;29;20058;-68
2023/03/03 11:43:11;;;;;;;53.35;32.08;;;9.10;99.90;;;;;;4919239;29;20036;-68
2023/03/03 11:45:50;;;;;;;54.33;30.02;;;9.50;99.90;;;;;;4935108;28;20035;-68
2023/03/03 11:48:20;;;;;;;48.47;30.35;;;9.40;99.90;;;;;;4917967;29;20038;-68
2023/03/03 11:50:46;;;;;;;53.55;32.80;;;9.20;99.90;;;;;;4934512;29;20408;-68
2023/03/03 11:53:53;;;;;;;51.08;31.25;;;9.20;99.90;;;;;;4936435;29;20036;-68
2023/03/03 11:56:25;;;;;;;50.15;31.92;;;9.40;99.90;;;;;;4917879;29;20476;-68
2023/03/03 11:59:11;;;;;;;55.60;32.20;;;9.50;99.90;;;;;;4934238;29;20477;-68
2023/03/03 12:01:40;;;;;;;49.47;29.98;;;9.80;99.90;;;;;;4932195;28;20036;-68
2023/03/03 12:04:14;;;;;;;52.22;31.02;;;10.20;99.90;;;;;;4935978;29;20032;-68
2023/03/03 12:07:01;;;;;;;51.42;31.38;;;10.20;99.90;;;;;;4919887;29;20027;-68
2023/03/03 12:09:45;;;;;;;46.60;29.20;;;9.90;99.90;;;;;;4920415;29;20523;-68
2023/03/03 12:12:23;;;;;;;47.92;27.88;;;9.70;99.90;;;;;;4944262;29;20031;-68
2023/03/03 12:14:52;;;;;;;51.83;32.40;;;9.80;99.90;;;;;;4938367;29;20476;-68
2023/03/03 12:17:31;;;;;;;51.83;32.55;;;9.80;99.90;;;;;;4935615;28;20378;-68
2023/03/03 12:19:57;;;;;;;53.30;33.50;;;10.00;99.90;;;;;;4927443;29;20425;-68
2023/03/03 12:22:33;;;;;;;49.80;32.95;;;10.20;99.90;;;;;;4936285;29;20393;-68
2023/03/03 12:25:23;;;;;;;49.28;31.88;;;10.50;99.90;;;;;;4934616;29;20035;-68
2023/03/03 12:28:17;;;;;;;50.20;32.55;;;10.70;99.90;;;;;;4935045;28;20042;-68
2023/03/03 12:30:58;;;;;;;41.50;26.67;;;10.60;99.90;;;;;;4934972;28;20028;-68
2023/03/03 12:33:39;;;;;;;;;;;10.20;99.90;;;;;;4934487;29;20036;-68
2023/03/03 12:36:26;;;;;;;51.60;32.15;;;10.10;99.90;;;;;;4934862;29;19926;-68
2023/03/03 12:39:22;;;;;;;48.58;29.50;;;10.10;99.90;;;;;;4935895;29;20047;-68
2023/03/03 12:42:11;;;;;;;43.88;28.60;;;10.00;99.90;;;;;;4922872;29;20472;-69
2023/03/03 12:44:43;;;;;;;49.88;28.23;;;10.10;99.90;;;;;;4917812;29;20484;-68
2023/03/03 12:47:45;;;;;;;48.92;29.42;;;10.30;99.90;;;;;;4916791;29;20043;-68
2023/03/03 12:50:19;;;;;;;;;;;10.30;99.90;;;;;;4921012;29;20422;-68
2023/03/03 12:53:27;;;;;;;48.10;29.15;;;10.20;99.90;;;;;;4932861;29;19911;-68
2023/03/03 12:56:10;;;;;;;54.03;32.20;;;10.30;99.90;;;;;;4841844;29;20047;-68
2023/03/03 12:58:51;;;;;;;33.80;19.85;;;10.30;99.90;;;;;;4858399;29;20099;-68
2023/03/03 13:01:32;;;;;;;48.72;31.17;;;10.40;99.90;;;;;;4856894;29;20411;-68
2023/03/03 13:04:19;;;;;;;44.38;29.10;;;10.30;99.90;;;;;;4857572;29;20486;-68